createdAt,value
2018-10-17T00:00:17.696Z,35.63
2018-10-17T00:05:19.956Z,35.03
2018-10-17T00:10:22.277Z,31.07
2018-10-17T00:15:24.565Z,32.83
2018-10-17T00:20:26.856Z,31.05
2018-10-17T00:25:29.217Z,30.85
2018-10-17T00:30:31.477Z,27.95
2018-10-17T00:35:33.770Z,25.92
2018-10-17T00:40:36.120Z,26.62
2018-10-17T00:45:38.321Z,26.85
2018-10-17T00:50:40.629Z,25.25
2018-10-17T00:55:43.125Z,28.85
2018-10-17T01:00:45.380Z,32.33
2018-10-17T01:05:47.628Z,26.80
2018-10-17T01:10:49.897Z,26.02
2018-10-17T01:15:52.146Z,26.70
2018-10-17T01:20:54.441Z,29.42
2018-10-17T01:25:56.787Z,25.37
2018-10-17T01:30:59.061Z,28.47
2018-10-17T01:36:01.354Z,27.30
2018-10-17T01:41:04.008Z,26.02
2018-10-17T01:46:06.184Z,26.30
2018-10-17T01:51:08.528Z,28.17
2018-10-17T01:56:10.837Z,22.77
2018-10-17T02:01:13.226Z,29.95
2018-10-17T02:06:15.437Z,31.27
2018-10-17T02:11:17.785Z,31.65
2018-10-17T02:16:19.988Z,29.92
2018-10-17T02:21:22.241Z,25.57
2018-10-17T02:26:24.587Z,24.87
2018-10-17T02:31:26.868Z,27.75
2018-10-17T02:36:29.180Z,26.75
2018-10-17T02:41:31.480Z,25.88
2018-10-17T02:46:33.824Z,27.52
2018-10-17T02:51:36.092Z,26.90
2018-10-17T02:56:38.429Z,29.55
2018-10-17T03:01:40.726Z,29.20
2018-10-17T03:06:43.072Z,27.62
2018-10-17T03:11:45.341Z,29.07
2018-10-17T03:16:47.626Z,28.98
2018-10-17T03:21:49.987Z,29.37
2018-10-17T03:26:52.319Z,29.77
2018-10-17T03:31:54.636Z,30.05
2018-10-17T03:36:56.999Z,34.20
2018-10-17T03:41:59.270Z,33.95
2018-10-17T03:47:01.629Z,29.80
2018-10-17T03:52:04.522Z,31.35
2018-10-17T03:57:07.317Z,34.13
2018-10-17T04:02:09.680Z,39.15
2018-10-17T04:07:13.098Z,34.40
2018-10-17T04:12:15.658Z,30.15
2018-10-17T04:17:18.094Z,33.33
2018-10-17T04:22:20.537Z,31.57
2018-10-17T04:27:22.892Z,34.03
2018-10-17T04:32:25.288Z,33.35
2018-10-17T04:37:27.605Z,31.10
2018-10-17T04:42:30.720Z,36.60
2018-10-17T04:47:33.176Z,43.25
2018-10-17T04:52:35.488Z,34.95
2018-10-17T04:57:37.939Z,39.13
2018-10-17T05:02:41.731Z,32.30
2018-10-17T05:07:44.081Z,34.95
2018-10-17T05:12:46.434Z,32.30
2018-10-17T05:17:48.783Z,31.65
2018-10-17T05:22:51.679Z,32.23
2018-10-17T05:27:54.087Z,35.73
2018-10-17T05:32:56.465Z,31.45
2018-10-17T05:37:58.905Z,34.85
2018-10-17T05:43:01.275Z,33.28
2018-10-17T05:48:03.648Z,42.73
2018-10-17T05:53:06.101Z,50.17
2018-10-17T05:58:08.685Z,41.30
2018-10-17T06:03:11.063Z,37.05
2018-10-17T06:08:13.447Z,35.15
2018-10-17T06:13:15.791Z,31.87
2018-10-17T06:18:18.173Z,32.35
2018-10-17T06:23:20.528Z,39.10
2018-10-17T06:28:22.972Z,37.05
2018-10-17T06:33:25.270Z,34.20
2018-10-17T06:38:27.589Z,30.68
2018-10-17T06:43:30.052Z,31.02
2018-10-17T06:48:32.481Z,32.98
2018-10-17T06:53:34.790Z,30.77
2018-10-17T06:58:37.145Z,30.55
2018-10-17T07:03:39.755Z,30.60
2018-10-17T07:08:42.073Z,30.68
2018-10-17T07:13:44.421Z,31.95
2018-10-17T07:18:46.767Z,30.25
2018-10-17T07:23:49.103Z,29.25
2018-10-17T07:28:52.321Z,29.25
2018-10-17T07:33:54.614Z,32.83
2018-10-17T07:38:56.915Z,29.95
2018-10-17T07:43:59.220Z,31.87
2018-10-17T07:49:01.579Z,33.55
2018-10-17T07:54:03.967Z,29.85
2018-10-17T07:59:06.323Z,30.70
2018-10-17T08:04:08.685Z,31.42
2018-10-17T08:09:11.738Z,28.87
2018-10-17T08:14:14.197Z,32.42
2018-10-17T08:19:16.403Z,31.80
2018-10-17T08:24:18.827Z,29.37
2018-10-17T08:29:21.216Z,30.20
2018-10-17T08:34:23.529Z,30.10
2018-10-17T08:39:25.837Z,32.23
2018-10-17T08:44:29.000Z,29.72
2018-10-17T08:49:31.381Z,30.32
2018-10-17T08:54:33.673Z,28.57
2018-10-17T08:59:36.003Z,28.62
2018-10-17T09:04:38.328Z,27.15
2018-10-17T09:09:40.626Z,29.92
2018-10-17T09:14:42.932Z,28.12
2018-10-17T09:19:45.395Z,31.25
2018-10-17T09:24:47.605Z,31.07
2018-10-17T09:29:49.957Z,33.55
2018-10-17T09:34:53.256Z,30.88
2018-10-17T09:39:55.640Z,33.23
2018-10-17T09:44:57.940Z,33.58
2018-10-17T09:50:00.284Z,33.38
2018-10-17T09:55:02.743Z,32.73
2018-10-17T10:00:11.255Z,40.98
2018-10-17T10:05:13.533Z,42.53
2018-10-17T10:10:15.835Z,45.10
2018-10-17T10:15:18.150Z,38.40
2018-10-17T10:20:20.805Z,41.83
2018-10-17T10:25:23.194Z,37.03
2018-10-17T10:30:25.582Z,41.20
2018-10-17T10:35:28.111Z,45.48
2018-10-17T10:40:30.481Z,43.15
2018-10-17T10:45:32.928Z,47.80
2018-10-17T10:50:35.092Z,45.17
2018-10-17T10:55:37.425Z,45.33
2018-10-17T11:00:40.095Z,48.25
2018-10-17T11:05:42.603Z,45.05
2018-10-17T11:10:44.793Z,51.37
2018-10-17T11:15:47.095Z,43.58
2018-10-17T11:20:49.406Z,44.15
2018-10-17T11:25:51.723Z,42.40
2018-10-17T11:30:54.112Z,39.83
2018-10-17T11:35:56.438Z,43.65
2018-10-17T11:40:58.743Z,38.92
2018-10-17T11:46:01.054Z,39.33
2018-10-17T11:51:03.465Z,42.35
2018-10-17T11:56:05.775Z,37.53
2018-10-17T12:01:08.197Z,42.62
2018-10-17T12:06:10.645Z,37.35
2018-10-17T12:11:13.116Z,36.60
2018-10-17T12:16:15.426Z,35.55
2018-10-17T12:21:17.854Z,38.98
2018-10-17T12:26:20.089Z,32.95
2018-10-17T12:31:22.476Z,32.35
2018-10-17T12:36:24.810Z,32.98
2018-10-17T12:41:27.180Z,32.40
2018-10-17T12:46:29.485Z,34.80
2018-10-17T12:51:31.775Z,33.05
2018-10-17T12:56:34.069Z,33.10
2018-10-17T13:01:36.577Z,31.17
2018-10-17T13:06:39.090Z,34.08
2018-10-17T13:11:41.457Z,33.35
2018-10-17T13:16:43.729Z,36.88
2018-10-17T13:21:46.060Z,32.53
2018-10-17T13:26:48.437Z,35.70
2018-10-17T13:31:50.851Z,32.78
2018-10-17T13:36:53.195Z,29.77
2018-10-17T13:41:55.520Z,24.87
2018-10-17T13:46:57.882Z,32.65
2018-10-17T13:52:00.164Z,27.52
2018-10-17T13:57:02.584Z,26.15
2018-10-17T14:02:04.985Z,31.90
2018-10-17T14:07:07.378Z,24.32
2018-10-17T14:12:09.803Z,28.40
2018-10-17T14:17:13.076Z,25.32
2018-10-17T14:22:15.418Z,28.83
2018-10-17T14:27:17.772Z,27.05
2018-10-17T14:32:20.430Z,28.95
2018-10-17T14:37:22.751Z,27.98
2018-10-17T14:42:25.213Z,28.27
2018-10-17T14:47:27.560Z,26.05
2018-10-17T14:52:29.933Z,25.68
2018-10-17T14:57:32.326Z,32.65
2018-10-17T15:02:34.716Z,25.92
2018-10-17T15:07:37.137Z,27.02
2018-10-17T15:12:39.509Z,24.52
2018-10-17T15:17:41.834Z,23.32
2018-10-17T15:22:44.318Z,23.15
2018-10-17T15:27:46.750Z,29.35
2018-10-17T15:32:49.324Z,25.00
2018-10-17T15:37:52.368Z,26.75
2018-10-17T15:42:54.869Z,30.48
2018-10-17T15:47:57.291Z,27.15
2018-10-17T15:52:59.785Z,32.28
2018-10-17T15:58:02.360Z,30.02
2018-10-17T16:03:04.816Z,33.28
2018-10-17T16:08:07.192Z,30.85
2018-10-17T16:13:09.508Z,32.88
2018-10-17T16:18:12.258Z,31.33
2018-10-17T16:23:14.639Z,36.73
2018-10-17T16:28:18.926Z,32.38
2018-10-17T16:33:22.209Z,31.77
2018-10-17T16:38:24.591Z,37.05
2018-10-17T16:43:26.908Z,36.35
2018-10-17T16:48:29.913Z,35.92
2018-10-17T16:53:32.219Z,34.03
2018-10-17T16:58:34.741Z,37.38
2018-10-17T17:03:37.121Z,40.23
2018-10-17T17:08:39.497Z,37.63
2018-10-17T17:13:41.866Z,38.80
2018-10-17T17:18:44.657Z,38.88
2018-10-17T17:23:47.044Z,34.48
2018-10-17T17:28:50.493Z,34.10
2018-10-17T17:33:52.846Z,34.83
2018-10-17T17:38:55.189Z,34.83
2018-10-17T17:43:57.530Z,36.03
2018-10-17T17:48:59.880Z,34.80
2018-10-17T17:54:02.210Z,44.27
2018-10-17T17:59:04.941Z,34.78
2018-10-17T18:04:07.417Z,37.60
2018-10-17T18:09:11.114Z,36.95
2018-10-17T18:14:13.547Z,37.75
2018-10-17T18:19:15.887Z,40.35
2018-10-17T18:24:18.308Z,37.48
2018-10-17T18:29:20.612Z,39.20
2018-10-17T18:34:22.998Z,37.70
2018-10-17T18:39:25.384Z,37.85
2018-10-17T18:44:27.808Z,40.83
2018-10-17T18:49:30.112Z,37.13
2018-10-17T18:54:32.466Z,35.05
2018-10-17T18:59:34.799Z,34.65
2018-10-17T19:04:37.196Z,39.00
2018-10-17T19:09:41.861Z,39.80
2018-10-17T19:14:44.199Z,45.92
2018-10-17T19:19:46.599Z,50.60
2018-10-17T19:24:49.099Z,49.63
2018-10-17T19:29:51.368Z,50.67
2018-10-17T19:34:56.088Z,50.48
2018-10-17T19:39:58.418Z,42.30
2018-10-17T19:45:00.749Z,39.65
2018-10-17T19:50:03.305Z,43.60
2018-10-17T19:55:06.685Z,39.50
2018-10-17T20:00:11.153Z,47.27
2018-10-17T20:05:13.546Z,50.33
2018-10-17T20:10:15.962Z,47.98
2018-10-17T20:15:18.411Z,45.67
2018-10-17T20:20:20.666Z,45.00
2018-10-17T20:25:23.016Z,43.45
2018-10-17T20:30:25.334Z,43.60
2018-10-17T20:35:27.695Z,44.33
2018-10-17T20:40:29.996Z,41.70
2018-10-17T20:45:32.293Z,47.43
2018-10-17T20:50:34.818Z,49.63
2018-10-17T20:55:37.233Z,51.98
2018-10-17T21:00:39.648Z,48.38
2018-10-17T21:05:42.478Z,51.58
2018-10-17T21:10:44.805Z,51.70
2018-10-17T21:15:47.117Z,54.65
2018-10-17T21:20:49.451Z,56.55
2018-10-17T21:25:51.786Z,58.45
2018-10-17T21:30:54.124Z,61.85
2018-10-17T21:35:56.515Z,68.57
2018-10-17T21:40:58.950Z,59.80
2018-10-17T21:46:01.289Z,69.60
2018-10-17T21:51:03.718Z,66.30
2018-10-17T21:56:06.167Z,59.95
2018-10-17T22:01:09.065Z,54.18
2018-10-17T22:06:11.427Z,52.60
2018-10-17T22:11:13.764Z,54.60
2018-10-17T22:16:16.090Z,49.77
2018-10-17T22:21:18.375Z,45.90
2018-10-17T22:26:20.730Z,44.65
2018-10-17T22:31:23.056Z,47.23
2018-10-17T22:36:25.393Z,47.53
2018-10-17T22:41:27.706Z,47.10
2018-10-17T22:46:30.117Z,53.45
2018-10-17T22:51:32.443Z,49.53
2018-10-17T22:56:34.764Z,51.37
2018-10-17T23:01:37.588Z,64.80
2018-10-17T23:06:39.929Z,57.88
2018-10-17T23:11:42.919Z,55.23
2018-10-17T23:16:45.333Z,51.90
2018-10-17T23:21:47.658Z,59.88
2018-10-17T23:26:49.996Z,51.63
2018-10-17T23:31:52.323Z,55.23
2018-10-17T23:36:54.689Z,51.98
2018-10-17T23:41:57.124Z,55.60
2018-10-17T23:46:59.535Z,49.55
2018-10-17T23:52:01.850Z,50.73
2018-10-17T23:57:04.239Z,49.40
